createdAt,value
2023-04-09T00:00:55.567Z,109.00
2023-04-09T00:01:56.222Z,109.00
2023-04-09T00:02:56.999Z,109.00
2023-04-09T00:03:57.725Z,109.00
2023-04-09T00:04:58.405Z,109.00
2023-04-09T00:05:59.045Z,109.00
2023-04-09T00:06:59.669Z,109.00
2023-04-09T00:08:00.356Z,109.00
2023-04-09T00:09:01.013Z,109.00
2023-04-09T00:09:10.304Z,109.00
2023-04-09T00:10:11.089Z,109.00
2023-04-09T00:11:11.710Z,109.00
2023-04-09T00:12:12.371Z,109.00
2023-04-09T00:13:13.167Z,109.00
2023-04-09T00:14:13.894Z,109.00
2023-04-09T00:15:27.834Z,109.00
2023-04-09T00:16:15.392Z,109.00
2023-04-09T00:17:15.968Z,109.00
2023-04-09T00:18:16.611Z,109.00
2023-04-09T00:19:17.352Z,109.00
2023-04-09T00:20:17.994Z,109.00
2023-04-09T00:21:18.412Z,109.00
2023-04-09T00:21:27.109Z,109.00
2023-04-09T00:22:27.734Z,109.00
2023-04-09T00:23:28.844Z,109.00
2023-04-09T00:24:28.600Z,109.00
2023-04-09T00:25:29.293Z,109.00
2023-04-09T00:26:29.910Z,109.00
2023-04-09T00:27:32.696Z,109.00
2023-04-09T00:28:36.472Z,109.00
2023-04-09T00:29:31.073Z,109.00
2023-04-09T00:30:31.722Z,109.00
2023-04-09T00:31:32.011Z,109.00
2023-04-09T00:32:32.725Z,109.00
2023-04-09T00:32:42.469Z,109.00
2023-04-09T00:33:42.557Z,109.00
2023-04-09T00:34:43.360Z,109.00
2023-04-09T00:35:44.017Z,109.00
2023-04-09T00:36:44.582Z,109.00
2023-04-09T00:37:45.172Z,109.00
2023-04-09T00:38:45.898Z,109.00
2023-04-09T00:39:46.554Z,109.00
2023-04-09T00:40:47.196Z,109.00
2023-04-09T00:41:47.848Z,109.00
2023-04-09T00:42:48.490Z,109.00
2023-04-09T00:42:58.274Z,109.00
2023-04-09T00:43:58.947Z,109.00
2023-04-09T00:44:59.693Z,109.00
2023-04-09T00:46:00.300Z,109.00
2023-04-09T00:47:00.828Z,109.00
2023-04-09T00:48:01.473Z,109.00
2023-04-09T00:49:02.238Z,109.00
2023-04-09T00:50:03.150Z,109.00
2023-04-09T00:51:03.839Z,109.00
2023-04-09T00:52:04.694Z,109.00
2023-04-09T00:53:05.352Z,109.00
2023-04-09T00:54:05.954Z,109.00
2023-04-09T00:54:14.712Z,109.00
2023-04-09T00:55:15.449Z,109.00
2023-04-09T00:56:15.995Z,109.00
2023-04-09T00:57:16.653Z,109.00
2023-04-09T00:58:17.461Z,109.00
2023-04-09T00:59:17.668Z,109.00
2023-04-09T01:00:18.366Z,109.00
2023-04-09T01:01:19.047Z,109.00
2023-04-09T01:02:19.721Z,109.00
2023-04-09T01:03:20.232Z,109.00
2023-04-09T01:04:20.782Z,109.00
2023-04-09T01:05:21.573Z,109.00
2023-04-09T01:05:31.852Z,109.00
2023-04-09T01:06:32.494Z,109.00
2023-04-09T01:07:33.154Z,109.00
2023-04-09T01:08:33.793Z,109.00
2023-04-09T01:09:34.494Z,109.00
2023-04-09T01:10:35.156Z,109.00
2023-04-09T01:11:35.744Z,109.00
2023-04-09T01:12:36.337Z,109.00
2023-04-09T01:13:36.972Z,109.00
2023-04-09T01:14:37.579Z,109.00
2023-04-09T01:15:38.473Z,109.00
2023-04-09T01:16:39.111Z,109.00
2023-04-09T01:17:39.738Z,109.00
2023-04-09T01:17:54.815Z,109.00
2023-04-09T01:18:55.159Z,109.00
2023-04-09T01:19:55.806Z,109.00
2023-04-09T01:20:56.629Z,109.00
2023-04-09T01:21:57.295Z,109.00
2023-04-09T01:22:57.872Z,109.00
2023-04-09T01:23:58.495Z,109.00
2023-04-09T01:24:59.108Z,109.00
2023-04-09T01:25:59.979Z,109.00
2023-04-09T01:27:00.095Z,109.00
2023-04-09T01:28:00.729Z,109.00
2023-04-09T01:28:09.467Z,109.00
2023-04-09T01:29:10.164Z,109.00
2023-04-09T01:30:10.877Z,109.00
2023-04-09T01:31:11.639Z,109.00
2023-04-09T01:32:12.186Z,109.00
2023-04-09T01:33:12.859Z,109.00
2023-04-09T01:34:13.484Z,109.00
2023-04-09T01:35:14.128Z,109.00
2023-04-09T01:36:14.820Z,109.00
2023-04-09T01:37:15.362Z,109.00
2023-04-09T01:38:16.111Z,109.00
2023-04-09T01:39:16.849Z,109.00
2023-04-09T01:39:25.561Z,109.00
2023-04-09T01:40:26.152Z,109.00
2023-04-09T01:41:26.840Z,109.00
2023-04-09T01:42:27.464Z,109.00
2023-04-09T01:43:28.053Z,109.00
2023-04-09T01:44:28.755Z,109.00
2023-04-09T01:45:29.297Z,109.00
2023-04-09T01:46:30.223Z,109.00
2023-04-09T01:47:30.727Z,109.00
2023-04-09T01:48:31.325Z,109.00
2023-04-09T01:49:31.997Z,109.00
2023-04-09T01:49:40.699Z,109.00
2023-04-09T01:50:41.305Z,109.00
2023-04-09T01:51:42.092Z,109.00
2023-04-09T01:52:42.819Z,109.00
2023-04-09T01:53:43.509Z,109.00
2023-04-09T01:54:44.320Z,109.00
2023-04-09T01:55:44.865Z,109.00
2023-04-09T01:56:45.540Z,109.00
2023-04-09T01:57:46.332Z,109.00
2023-04-09T01:58:46.969Z,109.00
2023-04-09T01:59:47.664Z,109.00
2023-04-09T02:00:48.359Z,109.00
2023-04-09T02:01:01.584Z,109.00
2023-04-09T02:02:01.242Z,109.00
2023-04-09T02:03:01.330Z,109.00
2023-04-09T02:04:02.191Z,109.00
2023-04-09T02:05:02.731Z,109.00
2023-04-09T02:06:03.442Z,109.00
2023-04-09T02:07:04.119Z,109.00
2023-04-09T02:08:04.727Z,109.00
2023-04-09T02:09:05.355Z,109.00
2023-04-09T02:10:05.985Z,109.00
2023-04-09T02:11:06.751Z,109.00
2023-04-09T02:12:07.507Z,109.00
2023-04-09T02:12:16.251Z,109.00
2023-04-09T02:13:16.884Z,109.00
2023-04-09T02:14:17.525Z,109.00
2023-04-09T02:15:18.355Z,109.00
2023-04-09T02:16:19.112Z,109.00
2023-04-09T02:17:19.752Z,109.00
2023-04-09T02:18:20.630Z,109.00
2023-04-09T02:19:21.349Z,109.00
2023-04-09T02:20:22.021Z,109.00
2023-04-09T02:21:22.717Z,109.00
2023-04-09T02:22:23.397Z,109.00
2023-04-09T02:23:24.008Z,109.00
2023-04-09T02:23:33.216Z,109.00
2023-04-09T02:24:33.883Z,109.00
2023-04-09T02:25:34.572Z,109.00
2023-04-09T02:26:35.264Z,109.00
2023-04-09T02:27:35.943Z,109.00
2023-04-09T02:28:36.717Z,109.00
2023-04-09T02:29:37.297Z,109.00
2023-04-09T02:30:38.018Z,109.00
2023-04-09T02:31:38.697Z,109.00
2023-04-09T02:32:39.365Z,109.00
2023-04-09T02:33:40.048Z,109.00
2023-04-09T02:33:48.813Z,109.00
2023-04-09T02:34:48.922Z,109.00
2023-04-09T02:35:49.634Z,109.00
2023-04-09T02:36:50.417Z,109.00
2023-04-09T02:37:51.175Z,109.00
2023-04-09T02:38:52.148Z,109.00
2023-04-09T02:39:52.501Z,109.00
2023-04-09T02:40:53.183Z,109.00
2023-04-09T02:41:53.914Z,109.00
2023-04-09T02:42:54.628Z,109.00
2023-04-09T02:43:55.255Z,109.00
2023-04-09T02:44:08.482Z,109.00
2023-04-09T02:45:09.096Z,109.00
2023-04-09T02:46:09.966Z,109.00
2023-04-09T02:47:10.609Z,109.00
2023-04-09T02:48:11.266Z,109.00
2023-04-09T02:49:11.950Z,109.00
2023-04-09T02:50:12.664Z,109.00
2023-04-09T02:51:13.338Z,109.00
2023-04-09T02:52:14.037Z,109.00
2023-04-09T02:53:14.780Z,109.00
2023-04-09T02:54:15.509Z,109.00
2023-04-09T02:55:16.105Z,109.00
2023-04-09T02:55:24.864Z,109.00
2023-04-09T02:56:25.572Z,109.00
2023-04-09T02:57:26.241Z,109.00
2023-04-09T02:58:26.973Z,109.00
2023-04-09T02:59:27.640Z,109.00
2023-04-09T03:00:28.360Z,109.00
2023-04-09T03:01:29.018Z,109.00
2023-04-09T03:02:29.859Z,109.00
2023-04-09T03:03:30.482Z,109.00
2023-04-09T03:04:31.016Z,109.00
2023-04-09T03:05:31.718Z,109.00
2023-04-09T03:05:40.457Z,109.00
2023-04-09T03:06:41.106Z,109.00
2023-04-09T03:07:41.873Z,109.00
2023-04-09T03:08:42.795Z,109.00
2023-04-09T03:09:43.510Z,109.00
2023-04-09T03:10:44.192Z,109.00
2023-04-09T03:11:44.909Z,109.00
2023-04-09T03:12:45.650Z,109.00
2023-04-09T03:13:45.996Z,109.00
2023-04-09T03:14:46.732Z,109.00
2023-04-09T03:15:47.425Z,109.00
2023-04-09T03:16:48.064Z,109.00
2023-04-09T03:16:58.793Z,109.00
2023-04-09T03:17:59.522Z,109.00
2023-04-09T03:19:00.162Z,109.00
2023-04-09T03:20:00.898Z,109.00
2023-04-09T03:21:01.526Z,109.00
2023-04-09T03:22:02.216Z,109.00
2023-04-09T03:23:02.894Z,109.00
2023-04-09T03:24:03.636Z,109.00
2023-04-09T03:25:04.257Z,109.00
2023-04-09T03:26:04.981Z,109.00
2023-04-09T03:27:05.624Z,109.00
2023-04-09T03:27:21.909Z,109.00
2023-04-09T03:28:21.404Z,109.00
2023-04-09T03:29:22.120Z,109.00
2023-04-09T03:30:22.840Z,109.00
2023-04-09T03:31:23.580Z,109.00
2023-04-09T03:32:24.346Z,109.00
2023-04-09T03:33:24.943Z,109.00
2023-04-09T03:34:25.941Z,109.00
2023-04-09T03:35:26.655Z,109.00
2023-04-09T03:36:27.417Z,109.00
2023-04-09T03:37:28.181Z,109.00
2023-04-09T03:37:36.974Z,109.00
2023-04-09T03:38:37.601Z,109.00
2023-04-09T03:39:38.262Z,109.00
2023-04-09T03:40:38.946Z,109.00
2023-04-09T03:41:39.607Z,109.00
2023-04-09T03:42:40.520Z,109.00
2023-04-09T03:43:41.260Z,109.00
2023-04-09T03:44:42.027Z,109.00
2023-04-09T03:45:42.765Z,109.00
2023-04-09T03:46:43.500Z,109.00
2023-04-09T03:47:44.411Z,109.00
2023-04-09T03:47:53.683Z,109.00
2023-04-09T03:48:54.643Z,109.00
2023-04-09T03:49:55.092Z,109.00
2023-04-09T03:50:55.910Z,109.00
2023-04-09T03:51:56.709Z,109.00
2023-04-09T03:52:57.548Z,109.00
2023-04-09T03:53:58.230Z,109.00
2023-04-09T03:54:59.025Z,109.00
2023-04-09T03:55:59.968Z,109.00
2023-04-09T03:57:00.668Z,109.00
2023-04-09T03:58:01.345Z,109.00
2023-04-09T03:58:10.125Z,109.00
2023-04-09T03:59:10.786Z,109.00
2023-04-09T04:00:11.509Z,109.00
2023-04-09T04:01:12.268Z,109.00
2023-04-09T04:02:13.264Z,109.00
2023-04-09T04:03:14.286Z,109.00
2023-04-09T04:04:14.872Z,109.00
2023-04-09T04:05:15.171Z,109.00
2023-04-09T04:06:15.827Z,109.00
2023-04-09T04:07:16.789Z,109.00
2023-04-09T04:08:17.471Z,109.00
2023-04-09T04:08:26.268Z,109.00
2023-04-09T04:09:26.992Z,109.00
2023-04-09T04:10:27.818Z,109.00
2023-04-09T04:11:28.544Z,109.00
2023-04-09T04:12:29.202Z,109.00
2023-04-09T04:13:29.926Z,109.00
2023-04-09T04:14:30.546Z,109.00
2023-04-09T04:15:31.397Z,109.00
2023-04-09T04:16:31.585Z,109.00
2023-04-09T04:17:32.314Z,109.00
2023-04-09T04:18:33.285Z,109.00
2023-04-09T04:19:33.996Z,109.00
2023-04-09T04:19:42.717Z,109.00
2023-04-09T04:20:43.454Z,109.00
2023-04-09T04:21:44.199Z,109.00
2023-04-09T04:22:44.984Z,109.00
2023-04-09T04:23:45.733Z,109.00
2023-04-09T04:24:45.755Z,109.00
2023-04-09T04:25:46.575Z,109.00
2023-04-09T04:26:47.460Z,109.00
2023-04-09T04:27:48.195Z,109.00
2023-04-09T04:28:49.026Z,109.00
2023-04-09T04:29:49.774Z,109.00
2023-04-09T04:30:50.610Z,109.00
2023-04-09T04:30:59.806Z,109.00
2023-04-09T04:32:00.654Z,109.00
2023-04-09T04:33:01.154Z,109.00
2023-04-09T04:34:01.844Z,109.00
2023-04-09T04:35:02.515Z,109.00
2023-04-09T04:36:03.202Z,109.00
2023-04-09T04:37:03.798Z,109.00
2023-04-09T04:38:04.463Z,109.00
2023-04-09T04:39:05.206Z,109.00
2023-04-09T04:40:05.970Z,109.00
2023-04-09T04:41:06.688Z,109.00
2023-04-09T04:42:07.363Z,109.00
2023-04-09T04:43:08.288Z,109.00
2023-04-09T04:43:17.033Z,109.00
2023-04-09T04:44:17.764Z,109.00
2023-04-09T04:45:18.429Z,109.00
2023-04-09T04:46:19.216Z,109.00
2023-04-09T04:47:20.162Z,109.00
2023-04-09T04:48:20.768Z,109.00
2023-04-09T04:49:21.406Z,109.00
2023-04-09T04:50:22.091Z,109.00
2023-04-09T04:51:22.096Z,109.00
2023-04-09T04:52:22.718Z,109.00
2023-04-09T04:53:23.706Z,109.00
2023-04-09T04:54:24.401Z,109.00
2023-04-09T04:54:33.172Z,109.00
2023-04-09T04:55:33.844Z,109.00
2023-04-09T04:56:34.497Z,109.00
2023-04-09T04:57:35.174Z,109.00
2023-04-09T04:58:35.796Z,109.00
2023-04-09T04:59:36.452Z,109.00
2023-04-09T05:00:37.138Z,109.00
2023-04-09T05:01:38.118Z,109.00
2023-04-09T05:02:38.700Z,109.00
2023-04-09T05:03:39.480Z,109.00
2023-04-09T05:04:40.176Z,109.00
2023-04-09T05:05:40.862Z,109.00
2023-04-09T05:05:52.601Z,109.00
2023-04-09T05:06:53.265Z,109.00
2023-04-09T05:07:53.880Z,109.00
2023-04-09T05:08:54.794Z,109.00
2023-04-09T05:09:55.163Z,109.00
2023-04-09T05:10:55.840Z,109.00
2023-04-09T05:11:56.529Z,109.00
2023-04-09T05:12:57.024Z,109.00
2023-04-09T05:13:57.656Z,109.00
2023-04-09T05:14:58.311Z,109.00
2023-04-09T05:15:58.967Z,109.00
2023-04-09T05:16:08.282Z,109.00
2023-04-09T05:17:08.885Z,109.00
2023-04-09T05:18:09.451Z,109.00
2023-04-09T05:19:10.073Z,109.00
2023-04-09T05:20:10.811Z,109.00
2023-04-09T05:21:11.491Z,109.00
2023-04-09T05:22:12.186Z,109.00
2023-04-09T05:23:12.866Z,109.00
2023-04-09T05:24:13.496Z,109.00
2023-04-09T05:25:14.102Z,109.00
2023-04-09T05:26:14.754Z,109.00
2023-04-09T05:26:23.994Z,109.00
2023-04-09T05:27:24.712Z,109.00
2023-04-09T05:28:24.776Z,109.00
2023-04-09T05:29:25.482Z,109.00
2023-04-09T05:30:26.290Z,109.00
2023-04-09T05:31:26.895Z,109.00
2023-04-09T05:32:27.732Z,109.00
2023-04-09T05:33:28.245Z,109.00
2023-04-09T05:34:28.882Z,109.00
2023-04-09T05:35:29.557Z,109.00
2023-04-09T05:36:30.214Z,109.00
2023-04-09T05:36:38.941Z,109.00
2023-04-09T05:37:39.586Z,109.00
2023-04-09T05:38:40.296Z,109.00
2023-04-09T05:39:40.944Z,109.00
2023-04-09T05:40:41.589Z,109.00
2023-04-09T05:41:42.270Z,109.00
2023-04-09T05:42:42.950Z,109.00
2023-04-09T05:43:43.656Z,109.00
2023-04-09T05:44:44.472Z,109.00
2023-04-09T05:45:44.948Z,109.00
2023-04-09T05:46:45.686Z,109.00
2023-04-09T05:47:46.458Z,109.00
2023-04-09T05:47:55.114Z,109.00
2023-04-09T05:48:55.731Z,109.00
2023-04-09T05:49:56.361Z,109.00
2023-04-09T05:50:59.097Z,109.00
2023-04-09T05:51:57.944Z,109.00
2023-04-09T05:52:58.610Z,109.00
2023-04-09T05:53:59.214Z,109.00
2023-04-09T05:54:59.909Z,109.00
2023-04-09T05:56:00.599Z,109.00
2023-04-09T05:57:01.257Z,109.00
2023-04-09T05:58:02.015Z,109.00
2023-04-09T05:58:11.802Z,109.00
2023-04-09T05:59:12.487Z,109.00
2023-04-09T06:00:13.150Z,109.00
2023-04-09T06:01:21.407Z,109.00
2023-04-09T06:02:14.487Z,109.00
2023-04-09T06:03:15.446Z,109.00
2023-04-09T06:04:16.186Z,109.00
2023-04-09T06:05:16.739Z,109.00
2023-04-09T06:06:17.352Z,109.00
2023-04-09T06:07:17.987Z,109.00
2023-04-09T06:08:18.976Z,109.00
2023-04-09T06:09:19.619Z,109.00
2023-04-09T06:09:28.789Z,109.00
2023-04-09T06:10:29.425Z,109.00
2023-04-09T06:11:29.990Z,109.00
2023-04-09T06:12:30.717Z,109.00
2023-04-09T06:13:31.370Z,109.00
2023-04-09T06:14:32.146Z,109.00
2023-04-09T06:15:32.758Z,109.00
2023-04-09T06:16:33.376Z,109.00
2023-04-09T06:17:44.546Z,109.00
2023-04-09T06:18:35.015Z,109.00
2023-04-09T06:19:37.984Z,109.00
2023-04-09T06:20:36.363Z,109.00
2023-04-09T06:20:45.582Z,109.00
2023-04-09T06:21:46.173Z,109.00
2023-04-09T06:22:46.822Z,109.00
2023-04-09T06:23:47.518Z,109.00
2023-04-09T06:24:48.186Z,109.00
2023-04-09T06:25:48.949Z,109.00
2023-04-09T06:26:49.556Z,109.00
2023-04-09T06:27:50.208Z,109.00
2023-04-09T06:28:50.233Z,109.00
2023-04-09T06:29:50.935Z,109.00
2023-04-09T06:30:51.691Z,109.00
2023-04-09T06:31:52.243Z,109.00
2023-04-09T06:32:01.026Z,109.00
2023-04-09T06:33:01.516Z,109.00
2023-04-09T06:34:02.268Z,109.00
2023-04-09T06:35:02.958Z,109.00
2023-04-09T06:36:03.718Z,109.00
2023-04-09T06:37:03.683Z,109.00
2023-04-09T06:38:04.507Z,109.00
2023-04-09T06:39:05.454Z,109.00
2023-04-09T06:40:06.155Z,109.00
2023-04-09T06:41:06.829Z,109.00
2023-04-09T06:42:06.842Z,109.00
2023-04-09T06:43:07.499Z,109.00
2023-04-09T06:43:17.704Z,109.00
2023-04-09T06:44:18.328Z,109.00
2023-04-09T06:45:18.950Z,109.00
2023-04-09T06:46:19.860Z,109.00
2023-04-09T06:47:20.581Z,109.00
2023-04-09T06:48:21.274Z,109.00
2023-04-09T06:49:21.956Z,109.00
2023-04-09T06:50:22.598Z,109.00
2023-04-09T06:51:23.412Z,109.00
2023-04-09T06:52:24.077Z,109.00
2023-04-09T06:53:24.780Z,109.00
2023-04-09T06:53:33.515Z,109.00
2023-04-09T06:54:34.222Z,109.00
2023-04-09T06:55:34.935Z,109.00
2023-04-09T06:56:35.217Z,109.00
2023-04-09T06:57:35.931Z,109.00
2023-04-09T06:58:36.660Z,109.00
2023-04-09T06:59:37.293Z,109.00
2023-04-09T07:00:37.895Z,109.00
2023-04-09T07:02:15.332Z,109.00
2023-04-09T07:03:48.480Z,103.68
2023-04-09T07:04:49.229Z,103.82
2023-04-09T07:05:49.923Z,98.37
2023-04-09T07:06:50.642Z,99.58
2023-04-09T07:07:51.418Z,99.96
2023-04-09T07:08:52.412Z,102.59
2023-04-09T07:09:52.980Z,105.94
2023-04-09T07:10:53.765Z,103.55
2023-04-09T07:11:53.865Z,100.28
2023-04-09T07:12:54.749Z,95.49
2023-04-09T07:13:55.720Z,92.01
2023-04-09T07:14:08.637Z,87.25
2023-04-09T07:15:08.322Z,87.42
2023-04-09T07:16:09.081Z,90.23
2023-04-09T07:17:09.856Z,86.00
2023-04-09T07:18:10.477Z,82.19
2023-04-09T07:19:11.108Z,78.46
2023-04-09T07:20:11.896Z,76.22
2023-04-09T07:21:12.550Z,78.15
2023-04-09T07:22:13.214Z,71.39
2023-04-09T07:23:14.057Z,70.65
2023-04-09T07:24:14.843Z,70.12
2023-04-09T07:24:26.582Z,72.30
2023-04-09T07:25:27.285Z,72.01
2023-04-09T07:26:28.197Z,75.43
2023-04-09T07:27:28.921Z,71.97
2023-04-09T07:28:29.623Z,72.83
2023-04-09T07:29:30.298Z,72.32
2023-04-09T07:30:31.060Z,66.21
2023-04-09T07:31:33.343Z,65.19
2023-04-09T07:32:32.509Z,66.33
2023-04-09T07:33:33.108Z,69.21
2023-04-09T07:34:33.962Z,64.49
2023-04-09T07:34:43.702Z,65.03
2023-04-09T07:35:44.433Z,64.85
2023-04-09T07:36:45.066Z,62.96
2023-04-09T07:37:45.770Z,61.47
2023-04-09T07:38:46.261Z,59.79
2023-04-09T07:39:46.899Z,58.10
2023-04-09T07:40:47.657Z,59.48
2023-04-09T07:41:48.343Z,60.04
2023-04-09T07:42:48.993Z,62.49
2023-04-09T07:43:49.620Z,62.80
2023-04-09T07:44:50.396Z,64.11
2023-04-09T07:45:51.089Z,59.43
2023-04-09T07:46:01.379Z,57.40
2023-04-09T07:47:02.196Z,57.61
2023-04-09T07:48:02.814Z,56.41
2023-04-09T07:49:03.431Z,54.74
2023-04-09T07:50:04.092Z,53.78
2023-04-09T07:51:04.816Z,55.36
2023-04-09T07:52:04.858Z,55.86
2023-04-09T07:53:05.560Z,55.06
2023-04-09T07:54:05.657Z,55.59
2023-04-09T07:55:06.381Z,53.58
2023-04-09T07:56:07.105Z,53.43
2023-04-09T07:57:07.827Z,52.28
2023-04-09T07:57:16.539Z,52.56
2023-04-09T07:58:17.166Z,52.90
2023-04-09T07:59:17.777Z,53.33
2023-04-09T08:00:18.443Z,52.49
2023-04-09T08:01:19.177Z,52.92
2023-04-09T08:02:19.942Z,53.13
2023-04-09T08:03:20.793Z,56.07
2023-04-09T08:04:21.705Z,55.52
2023-04-09T08:05:22.103Z,56.05
2023-04-09T08:06:22.790Z,53.92
2023-04-09T08:07:23.743Z,56.71
2023-04-09T08:07:32.477Z,56.57
2023-04-09T08:08:33.100Z,56.48
2023-04-09T08:09:33.725Z,55.38
2023-04-09T08:10:33.713Z,55.37
2023-04-09T08:11:34.539Z,54.38
2023-04-09T08:12:35.229Z,54.72
2023-04-09T08:13:36.022Z,54.84
2023-04-09T08:14:36.689Z,54.68
2023-04-09T08:15:37.330Z,53.08
2023-04-09T08:16:38.064Z,54.63
2023-04-09T08:17:38.731Z,54.03
2023-04-09T08:17:47.474Z,54.06
2023-04-09T08:18:48.056Z,54.10
2023-04-09T08:19:48.851Z,54.60
2023-04-09T08:20:49.533Z,56.23
2023-04-09T08:21:50.344Z,56.25
2023-04-09T08:22:50.921Z,57.56
2023-04-09T08:23:51.578Z,58.83
2023-04-09T08:24:52.275Z,60.52
2023-04-09T08:25:53.000Z,60.32
2023-04-09T08:26:53.843Z,62.84
2023-04-09T08:27:54.562Z,63.69
2023-04-09T08:28:03.778Z,69.23
2023-04-09T08:29:04.409Z,68.79
2023-04-09T08:30:05.175Z,67.99
2023-04-09T08:31:05.917Z,70.40
2023-04-09T08:32:06.835Z,71.31
2023-04-09T08:33:07.656Z,72.46
2023-04-09T08:34:08.299Z,71.54
2023-04-09T08:35:09.085Z,72.93
2023-04-09T08:36:09.826Z,74.73
2023-04-09T08:37:10.590Z,75.18
2023-04-09T08:38:12.308Z,75.30
2023-04-09T08:39:12.004Z,75.63
2023-04-09T08:39:21.287Z,76.79
2023-04-09T08:40:21.651Z,76.87
2023-04-09T08:41:22.345Z,75.42
2023-04-09T08:42:22.807Z,78.84
2023-04-09T08:43:26.981Z,79.56
2023-04-09T08:44:24.335Z,81.43
2023-04-09T08:45:25.551Z,82.55
2023-04-09T08:47:00.966Z,89.89
2023-04-09T08:48:01.925Z,89.90
2023-04-09T08:49:02.354Z,90.94
2023-04-09T08:50:02.961Z,90.67
2023-04-09T08:51:03.581Z,90.56
2023-04-09T08:52:04.302Z,89.25
2023-04-09T08:53:05.162Z,92.09
2023-04-09T08:54:05.790Z,94.04
2023-04-09T08:55:06.542Z,96.61
2023-04-09T08:56:07.292Z,95.32
2023-04-09T08:57:07.958Z,95.23
2023-04-09T08:57:17.696Z,97.41
2023-04-09T08:58:18.462Z,97.77
2023-04-09T08:59:20.103Z,95.31
2023-04-09T09:00:52.286Z,103.74
2023-04-09T09:02:00.328Z,104.23
2023-04-09T09:02:53.552Z,105.99
2023-04-09T09:03:54.840Z,107.53
2023-04-09T09:04:54.360Z,109.00
2023-04-09T09:05:54.394Z,109.00
2023-04-09T09:06:56.692Z,109.00
2023-04-09T09:07:55.815Z,109.00
2023-04-09T09:08:56.781Z,109.00
2023-04-09T09:09:57.391Z,109.00
2023-04-09T09:10:58.093Z,109.00
2023-04-09T09:11:58.757Z,109.00
2023-04-09T09:12:08.017Z,109.00
2023-04-09T09:13:08.655Z,109.00
2023-04-09T09:14:09.380Z,109.00
2023-04-09T09:15:10.040Z,109.00
2023-04-09T09:16:10.712Z,109.00
2023-04-09T09:17:11.470Z,109.00
2023-04-09T09:18:12.044Z,109.00
2023-04-09T09:19:12.828Z,109.00
2023-04-09T09:20:13.483Z,109.00
2023-04-09T09:21:14.234Z,109.00
2023-04-09T09:22:14.898Z,109.00
2023-04-09T09:23:15.763Z,109.00
2023-04-09T09:23:25.057Z,109.00
2023-04-09T09:24:25.207Z,109.00
2023-04-09T09:25:26.454Z,109.00
2023-04-09T09:26:26.536Z,109.00
2023-04-09T09:27:27.292Z,109.00
2023-04-09T09:28:27.993Z,109.00
2023-04-09T09:29:28.219Z,109.00
2023-04-09T09:30:28.884Z,109.00
2023-04-09T09:31:29.764Z,109.00
2023-04-09T09:32:30.377Z,109.00
2023-04-09T09:33:31.043Z,109.00
2023-04-09T09:34:31.800Z,109.00
2023-04-09T09:34:40.532Z,108.89
2023-04-09T09:35:40.671Z,108.91
2023-04-09T09:36:41.258Z,108.16
2023-04-09T09:37:41.964Z,108.89
2023-04-09T09:38:42.656Z,107.29
2023-04-09T09:39:42.845Z,109.00
2023-04-09T09:40:43.486Z,104.79
2023-04-09T09:41:44.194Z,102.54
2023-04-09T09:43:16.560Z,101.33
2023-04-09T09:44:17.165Z,101.32
2023-04-09T09:45:17.198Z,103.15
2023-04-09T09:46:17.976Z,104.55
2023-04-09T09:47:18.581Z,102.52
2023-04-09T09:48:18.980Z,101.40
2023-04-09T09:49:19.694Z,98.83
2023-04-09T09:50:20.485Z,97.96
2023-04-09T09:51:21.160Z,98.86
2023-04-09T09:52:22.056Z,101.57
2023-04-09T09:53:22.768Z,102.36
2023-04-09T09:53:31.493Z,101.31
2023-04-09T09:54:32.251Z,101.15
2023-04-09T09:55:33.059Z,100.94
2023-04-09T09:56:33.789Z,102.08
2023-04-09T09:57:34.413Z,103.35
2023-04-09T09:58:35.125Z,105.09
2023-04-09T09:59:35.369Z,106.69
2023-04-09T10:00:36.185Z,108.85
2023-04-09T10:01:37.176Z,107.71
2023-04-09T10:02:37.946Z,106.07
2023-04-09T10:03:38.460Z,105.92
2023-04-09T10:03:47.717Z,104.25
2023-04-09T10:04:48.545Z,104.29
2023-04-09T10:05:48.546Z,104.19
2023-04-09T10:06:48.656Z,102.32
2023-04-09T10:07:49.477Z,101.48
2023-04-09T10:08:50.351Z,100.05
2023-04-09T10:09:51.011Z,101.14
2023-04-09T10:10:51.891Z,103.37
2023-04-09T10:11:52.745Z,100.65
2023-04-09T10:12:53.646Z,100.57
2023-04-09T10:13:54.777Z,96.26
2023-04-09T10:14:03.915Z,97.86
2023-04-09T10:15:04.640Z,98.45
2023-04-09T10:16:05.390Z,94.82
2023-04-09T10:17:06.027Z,94.34
2023-04-09T10:18:06.908Z,93.84
2023-04-09T10:19:07.674Z,97.07
2023-04-09T10:20:08.436Z,96.55
2023-04-09T10:21:09.295Z,94.44
2023-04-09T10:22:10.234Z,100.33
2023-04-09T10:23:10.948Z,97.77
2023-04-09T10:24:11.805Z,96.88
2023-04-09T10:24:20.508Z,89.03
2023-04-09T10:25:20.675Z,89.65
2023-04-09T10:26:20.926Z,86.16
2023-04-09T10:27:21.709Z,91.37
2023-04-09T10:28:22.460Z,87.26
2023-04-09T10:29:23.292Z,87.69
2023-04-09T10:30:24.024Z,89.00
2023-04-09T10:31:24.296Z,81.36
2023-04-09T10:32:25.006Z,81.54
2023-04-09T10:33:25.750Z,85.13
2023-04-09T10:34:26.521Z,90.30
2023-04-09T10:35:27.142Z,86.90
2023-04-09T10:36:27.976Z,89.65
2023-04-09T10:36:37.169Z,90.17
2023-04-09T10:37:37.790Z,90.66
2023-04-09T10:38:38.578Z,89.03
2023-04-09T10:39:38.570Z,87.23
2023-04-09T10:40:39.364Z,84.68
2023-04-09T10:41:40.066Z,83.01
2023-04-09T10:42:40.837Z,83.65
2023-04-09T10:43:41.620Z,84.33
2023-04-09T10:44:42.313Z,82.22
2023-04-09T10:45:42.929Z,80.77
2023-04-09T10:46:43.706Z,82.15
2023-04-09T10:47:44.434Z,90.15
2023-04-09T10:47:56.702Z,93.26
2023-04-09T10:48:57.442Z,92.91
2023-04-09T10:49:58.146Z,90.77
2023-04-09T10:50:58.803Z,88.38
2023-04-09T10:51:59.536Z,84.34
2023-04-09T10:53:00.218Z,84.03
2023-04-09T10:54:00.878Z,87.65
2023-04-09T10:55:01.564Z,76.04
2023-04-09T10:56:03.276Z,71.18
2023-04-09T10:57:03.010Z,73.14
2023-04-09T10:58:03.668Z,72.36
2023-04-09T10:59:04.419Z,72.50
2023-04-09T10:59:14.642Z,76.72
2023-04-09T11:00:15.309Z,76.83
2023-04-09T11:01:15.428Z,71.63
2023-04-09T11:02:16.391Z,71.57
2023-04-09T11:03:17.365Z,68.11
2023-04-09T11:04:18.088Z,70.10
2023-04-09T11:05:18.899Z,69.73
2023-04-09T11:06:19.596Z,71.17
2023-04-09T11:07:19.628Z,73.18
2023-04-09T11:08:31.396Z,74.50
2023-04-09T11:09:54.322Z,73.01
2023-04-09T11:10:55.198Z,73.24
2023-04-09T11:11:56.002Z,71.96
2023-04-09T11:12:56.852Z,74.42
2023-04-09T11:13:56.908Z,75.82
2023-04-09T11:14:57.830Z,74.85
2023-04-09T11:15:59.697Z,79.47
2023-04-09T11:16:58.971Z,78.35
2023-04-09T11:17:59.851Z,80.03
2023-04-09T11:19:00.581Z,81.38
2023-04-09T11:20:01.329Z,84.40
2023-04-09T11:20:10.154Z,86.78
2023-04-09T11:21:10.425Z,87.01
2023-04-09T11:22:11.134Z,85.94
2023-04-09T11:23:11.955Z,87.29
2023-04-09T11:24:12.713Z,88.60
2023-04-09T11:25:12.783Z,91.50
2023-04-09T11:26:13.635Z,89.06
2023-04-09T11:27:14.319Z,90.08
2023-04-09T11:28:14.644Z,88.23
2023-04-09T11:29:15.332Z,85.01
2023-04-09T11:30:16.177Z,84.69
2023-04-09T11:31:17.261Z,87.58
2023-04-09T11:31:29.009Z,91.09
2023-04-09T11:32:29.799Z,91.40
2023-04-09T11:33:29.855Z,89.79
2023-04-09T11:34:30.574Z,85.24
2023-04-09T11:35:31.290Z,89.45
2023-04-09T11:36:32.029Z,84.28
2023-04-09T11:37:32.816Z,84.95
2023-04-09T11:38:33.762Z,82.14
2023-04-09T11:39:33.845Z,82.79
2023-04-09T11:40:34.560Z,82.64
2023-04-09T11:41:35.289Z,86.97
2023-04-09T11:42:36.189Z,84.94
2023-04-09T11:42:45.472Z,79.53
2023-04-09T11:43:45.756Z,79.16
2023-04-09T11:44:46.601Z,78.40
2023-04-09T11:45:47.635Z,80.06
2023-04-09T11:46:48.386Z,78.28
2023-04-09T11:47:48.454Z,79.50
2023-04-09T11:48:48.701Z,79.23
2023-04-09T11:49:49.422Z,78.75
2023-04-09T11:50:49.565Z,80.15
2023-04-09T11:51:50.537Z,77.71
2023-04-09T11:52:51.271Z,79.36
2023-04-09T11:53:00.127Z,72.30
2023-04-09T11:54:00.834Z,72.56
2023-04-09T11:55:00.897Z,75.39